sensor_id;sensor_type;location;lat;lon;timestamp;pressure;altitude;pressure_sealevel;temperature;humidity
73457;BME280;61691;53.072;6.582;2023-04-08T00:00:58;102380.91;;;5.66;66.02
73457;BME280;61691;53.072;6.582;2023-04-08T00:03:25;102381.97;;;5.62;65.61
73457;BME280;61691;53.072;6.582;2023-04-08T00:05:52;102369.19;;;5.53;66.26
73457;BME280;61691;53.072;6.582;2023-04-08T00:08:18;102365.78;;;5.51;65.95
73457;BME280;61691;53.072;6.582;2023-04-08T00:10:45;102386.50;;;5.59;66.60
73457;BME280;61691;53.072;6.582;2023-04-08T00:13:12;102330.13;;;5.24;66.65
73457;BME280;61691;53.072;6.582;2023-04-08T00:15:40;102358.72;;;5.31;66.63
73457;BME280;61691;53.072;6.582;2023-04-08T00:18:07;102355.56;;;5.23;66.83
73457;BME280;61691;53.072;6.582;2023-04-08T00:20:34;102362.53;;;5.24;67.46
73457;BME280;61691;53.072;6.582;2023-04-08T00:23:00;102382.56;;;5.27;67.90
73457;BME280;61691;53.072;6.582;2023-04-08T00:25:27;102283.63;;;4.62;67.83
73457;BME280;61691;53.072;6.582;2023-04-08T00:27:54;102352.16;;;4.99;68.28
73457;BME280;61691;53.072;6.582;2023-04-08T00:30:21;102391.88;;;5.14;67.99
73457;BME280;61691;53.072;6.582;2023-04-08T00:32:47;102333.81;;;4.76;68.66
73457;BME280;61691;53.072;6.582;2023-04-08T00:35:14;102369.75;;;4.97;68.65
73457;BME280;61691;53.072;6.582;2023-04-08T00:37:41;102328.88;;;4.68;68.92
73457;BME280;61691;53.072;6.582;2023-04-08T00:40:08;102400.81;;;5.10;68.69
73457;BME280;61691;53.072;6.582;2023-04-08T00:42:34;102396.72;;;5.02;69.11
73457;BME280;61691;53.072;6.582;2023-04-08T00:45:02;102392.47;;;4.98;69.47
73457;BME280;61691;53.072;6.582;2023-04-08T00:47:29;102367.66;;;4.84;69.57
73457;BME280;61691;53.072;6.582;2023-04-08T00:49:55;102384.03;;;4.90;69.71
73457;BME280;61691;53.072;6.582;2023-04-08T00:52:22;102395.16;;;4.97;69.67
73457;BME280;61691;53.072;6.582;2023-04-08T00:54:49;102392.72;;;4.92;70.05
73457;BME280;61691;53.072;6.582;2023-04-08T00:57:16;102391.03;;;4.91;70.12
73457;BME280;61691;53.072;6.582;2023-04-08T00:59:42;102389.31;;;4.90;70.00
73457;BME280;61691;53.072;6.582;2023-04-08T01:02:35;102337.34;;;4.53;70.25
73457;BME280;61691;53.072;6.582;2023-04-08T01:07:44;102403.53;;;4.85;70.66
73457;BME280;61691;53.072;6.582;2023-04-08T01:10:16;102412.53;;;4.79;71.65
73457;BME280;61691;53.072;6.582;2023-04-08T01:12:49;102419.72;;;4.74;71.84
73457;BME280;61691;53.072;6.582;2023-04-08T01:15:17;102421.66;;;4.69;71.73
73457;BME280;61691;53.072;6.582;2023-04-08T01:17:44;102390.88;;;4.51;71.72
73457;BME280;61691;53.072;6.582;2023-04-08T01:20:12;102415.75;;;4.64;71.91
73457;BME280;61691;53.072;6.582;2023-04-08T01:23:32;102413.34;;;4.58;72.85
73457;BME280;61691;53.072;6.582;2023-04-08T01:26:04;102378.31;;;4.36;72.53
73457;BME280;61691;53.072;6.582;2023-04-08T01:28:32;102396.41;;;4.43;72.43
73457;BME280;61691;53.072;6.582;2023-04-08T01:30:59;102403.22;;;4.47;72.63
73457;BME280;61691;53.072;6.582;2023-04-08T01:33:28;102411.97;;;4.48;73.21
73457;BME280;61691;53.072;6.582;2023-04-08T01:35:56;102403.28;;;4.46;73.20
73457;BME280;61691;53.072;6.582;2023-04-08T01:38:25;102393.88;;;4.40;72.75
73457;BME280;61691;53.072;6.582;2023-04-08T01:40:55;102386.28;;;4.33;73.36
73457;BME280;61691;53.072;6.582;2023-04-08T01:43:23;102413.78;;;4.46;72.79
73457;BME280;61691;53.072;6.582;2023-04-08T01:45:51;102400.09;;;4.38;72.92
73457;BME280;61691;53.072;6.582;2023-04-08T01:48:24;102406.16;;;4.40;73.54
73457;BME280;61691;53.072;6.582;2023-04-08T01:50:51;102414.97;;;4.37;72.86
73457;BME280;61691;53.072;6.582;2023-04-08T01:53:19;102413.34;;;4.35;73.27
73457;BME280;61691;53.072;6.582;2023-04-08T01:55:48;102415.97;;;4.35;73.27
73457;BME280;61691;53.072;6.582;2023-04-08T01:58:19;102380.97;;;4.11;73.49
73457;BME280;61691;53.072;6.582;2023-04-08T02:00:47;102424.75;;;4.34;74.12
73457;BME280;61691;53.072;6.582;2023-04-08T02:03:17;102395.84;;;4.10;74.10
73457;BME280;61691;53.072;6.582;2023-04-08T02:05:46;102406.94;;;4.18;74.17
73457;BME280;61691;53.072;6.582;2023-04-08T02:08:12;102432.03;;;4.25;74.12
73457;BME280;61691;53.072;6.582;2023-04-08T02:10:39;102395.28;;;4.02;74.22
73457;BME280;61691;53.072;6.582;2023-04-08T02:13:06;102410.75;;;4.10;74.49
73457;BME280;61691;53.072;6.582;2023-04-08T02:15:35;102403.03;;;4.05;74.42
73457;BME280;61691;53.072;6.582;2023-04-08T02:18:12;102369.75;;;3.82;74.74
73457;BME280;61691;53.072;6.582;2023-04-08T02:20:43;102428.25;;;4.09;74.77
73457;BME280;61691;53.072;6.582;2023-04-08T02:23:16;102437.75;;;4.13;74.98
73457;BME280;61691;53.072;6.582;2023-04-08T02:25:46;102422.31;;;4.04;74.89
73457;BME280;61691;53.072;6.582;2023-04-08T02:28:14;102393.28;;;3.84;74.99
73457;BME280;61691;53.072;6.582;2023-04-08T02:30:48;102435.13;;;4.13;74.94
73457;BME280;61691;53.072;6.582;2023-04-08T02:33:17;102441.28;;;4.12;75.08
73457;BME280;61691;53.072;6.582;2023-04-08T02:35:45;102438.69;;;4.11;75.04
73457;BME280;61691;53.072;6.582;2023-04-08T02:38:13;102429.38;;;4.02;76.01
73457;BME280;61691;53.072;6.582;2023-04-08T02:40:40;102419.09;;;3.96;75.56
73457;BME280;61691;53.072;6.582;2023-04-08T02:43:07;102420.88;;;3.96;75.77
73457;BME280;61691;53.072;6.582;2023-04-08T02:45:40;102415.75;;;3.91;75.91
73457;BME280;61691;53.072;6.582;2023-04-08T02:48:07;102427.88;;;3.95;76.09
73457;BME280;61691;53.072;6.582;2023-04-08T02:50:34;102389.41;;;3.69;75.80
73457;BME280;61691;53.072;6.582;2023-04-08T02:53:01;102426.59;;;3.82;75.86
73457;BME280;61691;53.072;6.582;2023-04-08T02:55:28;102440.19;;;3.93;75.77
73457;BME280;61691;53.072;6.582;2023-04-08T02:57:54;102433.56;;;3.83;76.22
73457;BME280;61691;53.072;6.582;2023-04-08T03:00:21;102423.25;;;3.77;75.95
73457;BME280;61691;53.072;6.582;2023-04-08T03:02:48;102437.09;;;3.82;75.94
73457;BME280;61691;53.072;6.582;2023-04-08T03:05:15;102462.81;;;3.97;76.45
73457;BME280;61691;53.072;6.582;2023-04-08T03:07:42;102423.59;;;3.68;76.69
73457;BME280;61691;53.072;6.582;2023-04-08T03:10:09;102444.19;;;3.78;76.61
73457;BME280;61691;53.072;6.582;2023-04-08T03:12:35;102458.75;;;3.87;76.57
73457;BME280;61691;53.072;6.582;2023-04-08T03:15:02;102470.97;;;3.88;76.81
73457;BME280;61691;53.072;6.582;2023-04-08T03:17:29;102463.09;;;3.88;76.99
73457;BME280;61691;53.072;6.582;2023-04-08T03:20:02;102425.53;;;3.61;76.79
73457;BME280;61691;53.072;6.582;2023-04-08T03:22:32;102461.59;;;3.81;77.30
73457;BME280;61691;53.072;6.582;2023-04-08T03:24:59;102432.44;;;3.64;76.58
73457;BME280;61691;53.072;6.582;2023-04-08T03:27:26;102463.97;;;3.88;77.15
73457;BME280;61691;53.072;6.582;2023-04-08T03:29:53;102441.78;;;3.72;76.81
73457;BME280;61691;53.072;6.582;2023-04-08T03:32:20;102466.84;;;3.81;76.92
73457;BME280;61691;53.072;6.582;2023-04-08T03:34:46;102475.56;;;3.81;76.84
73457;BME280;61691;53.072;6.582;2023-04-08T03:37:15;102463.53;;;3.76;77.09
73457;BME280;61691;53.072;6.582;2023-04-08T03:39:42;102465.44;;;3.71;77.12
73457;BME280;61691;53.072;6.582;2023-04-08T03:42:08;102460.31;;;3.68;77.46
73457;BME280;61691;53.072;6.582;2023-04-08T03:44:35;102473.91;;;3.79;77.02
73457;BME280;61691;53.072;6.582;2023-04-08T03:47:01;102456.66;;;3.72;77.57
73457;BME280;61691;53.072;6.582;2023-04-08T03:49:28;102455.91;;;3.68;77.78
73457;BME280;61691;53.072;6.582;2023-04-08T03:51:55;102485.34;;;3.76;77.93
73457;BME280;61691;53.072;6.582;2023-04-08T03:54:22;102461.94;;;3.70;77.86
73457;BME280;61691;53.072;6.582;2023-04-08T03:56:49;102473.09;;;3.77;77.93
73457;BME280;61691;53.072;6.582;2023-04-08T03:59:15;102483.53;;;3.78;78.02
73457;BME280;61691;53.072;6.582;2023-04-08T04:01:42;102475.72;;;3.77;77.88
73457;BME280;61691;53.072;6.582;2023-04-08T04:04:09;102467.16;;;3.72;78.21
73457;BME280;61691;53.072;6.582;2023-04-08T04:06:36;102467.91;;;3.75;78.03
73457;BME280;61691;53.072;6.582;2023-04-08T04:09:03;102469.69;;;3.75;78.23
73457;BME280;61691;53.072;6.582;2023-04-08T04:11:29;102467.97;;;3.74;77.87
73457;BME280;61691;53.072;6.582;2023-04-08T04:13:56;102465.56;;;3.68;78.74
73457;BME280;61691;53.072;6.582;2023-04-08T04:16:23;102467.06;;;3.75;78.13
73457;BME280;61691;53.072;6.582;2023-04-08T04:18:51;102444.09;;;3.55;78.46
73457;BME280;61691;53.072;6.582;2023-04-08T04:21:18;102441.53;;;3.54;78.57
73457;BME280;61691;53.072;6.582;2023-04-08T04:23:45;102468.97;;;3.70;78.67
73457;BME280;61691;53.072;6.582;2023-04-08T04:26:12;102475.03;;;3.72;78.74
73457;BME280;61691;53.072;6.582;2023-04-08T04:28:39;102465.56;;;3.68;78.34
73457;BME280;61691;53.072;6.582;2023-04-08T04:31:05;102463.78;;;3.68;78.65
73457;BME280;61691;53.072;6.582;2023-04-08T04:33:32;102476.78;;;3.71;78.76
73457;BME280;61691;53.072;6.582;2023-04-08T04:35:59;102462.97;;;3.66;78.61
73457;BME280;61691;53.072;6.582;2023-04-08T04:38:26;102482.88;;;3.72;78.53
73457;BME280;61691;53.072;6.582;2023-04-08T04:40:52;102484.69;;;3.70;78.82
73457;BME280;61691;53.072;6.582;2023-04-08T04:43:20;102493.94;;;3.81;78.92
73457;BME280;61691;53.072;6.582;2023-04-08T04:45:46;102431.38;;;3.44;78.83
73457;BME280;61691;53.072;6.582;2023-04-08T04:48:13;102498.13;;;3.87;78.69
73457;BME280;61691;53.072;6.582;2023-04-08T04:50:40;102479.16;;;3.79;79.11
73457;BME280;61691;53.072;6.582;2023-04-08T04:53:07;102480.78;;;3.83;79.29
73457;BME280;61691;53.072;6.582;2023-04-08T04:55:33;102501.38;;;3.94;78.79
73457;BME280;61691;53.072;6.582;2023-04-08T04:58:03;102473.91;;;3.79;79.31
73457;BME280;61691;53.072;6.582;2023-04-08T05:00:30;102483.97;;;3.91;78.75
73457;BME280;61691;53.072;6.582;2023-04-08T05:02:56;102502.84;;;4.02;79.21
73457;BME280;61691;53.072;6.582;2023-04-08T05:05:23;102476.28;;;3.86;78.95
73457;BME280;61691;53.072;6.582;2023-04-08T05:07:50;102484.69;;;3.96;79.07
73457;BME280;61691;53.072;6.582;2023-04-08T05:10:17;102511.41;;;4.07;78.83
73457;BME280;61691;53.072;6.582;2023-04-08T05:12:44;102515.72;;;4.10;78.94
73457;BME280;61691;53.072;6.582;2023-04-08T05:15:10;102492.41;;;4.01;79.09
73457;BME280;61691;53.072;6.582;2023-04-08T05:17:37;102528.34;;;4.23;79.11
73457;BME280;61691;53.072;6.582;2023-04-08T05:20:04;102517.00;;;4.23;78.88
73457;BME280;61691;53.072;6.582;2023-04-08T05:22:31;102529.84;;;4.31;78.55
73457;BME280;61691;53.072;6.582;2023-04-08T05:24:58;102511.00;;;4.19;78.65
73457;BME280;61691;53.072;6.582;2023-04-08T05:27:24;102516.09;;;4.24;78.90
73457;BME280;61691;53.072;6.582;2023-04-08T05:29:51;102526.22;;;4.35;78.97
73457;BME280;61691;53.072;6.582;2023-04-08T05:32:18;102491.91;;;4.14;78.65
73457;BME280;61691;53.072;6.582;2023-04-08T05:34:45;102514.09;;;4.31;78.36
73457;BME280;61691;53.072;6.582;2023-04-08T05:37:12;102527.59;;;4.45;78.71
73457;BME280;61691;53.072;6.582;2023-04-08T05:39:38;102512.88;;;4.41;78.77
73457;BME280;61691;53.072;6.582;2023-04-08T05:42:05;102496.44;;;4.36;78.64
73457;BME280;61691;53.072;6.582;2023-04-08T05:44:31;102502.97;;;4.49;78.76
73457;BME280;61691;53.072;6.582;2023-04-08T05:46:58;102532.78;;;4.71;78.40
73457;BME280;61691;53.072;6.582;2023-04-08T05:49:26;102542.69;;;4.88;78.78
73457;BME280;61691;53.072;6.582;2023-04-08T05:51:52;102528.13;;;5.02;78.59
73457;BME280;61691;53.072;6.582;2023-04-08T05:54:19;102539.41;;;5.28;78.64
73457;BME280;61691;53.072;6.582;2023-04-08T05:56:46;102544.88;;;5.45;78.84
73457;BME280;61691;53.072;6.582;2023-04-08T05:59:14;102546.66;;;5.66;78.49
73457;BME280;61691;53.072;6.582;2023-04-08T06:01:41;102512.75;;;5.59;77.97
73457;BME280;61691;53.072;6.582;2023-04-08T06:04:08;102570.66;;;6.02;77.92
73457;BME280;61691;53.072;6.582;2023-04-08T06:06:37;102559.56;;;5.94;77.12
73457;BME280;61691;53.072;6.582;2023-04-08T06:09:04;102536.41;;;5.80;77.12
73457;BME280;61691;53.072;6.582;2023-04-08T06:11:31;102577.31;;;6.11;77.19
73457;BME280;61691;53.072;6.582;2023-04-08T06:13:58;102569.63;;;6.27;77.50
73457;BME280;61691;53.072;6.582;2023-04-08T06:16:24;102576.44;;;6.52;77.59
73457;BME280;61691;53.072;6.582;2023-04-08T06:18:52;102582.56;;;6.73;77.62
73457;BME280;61691;53.072;6.582;2023-04-08T06:21:19;102575.69;;;6.89;77.13
73457;BME280;61691;53.072;6.582;2023-04-08T06:23:47;102511.22;;;6.57;76.72
73457;BME280;61691;53.072;6.582;2023-04-08T06:26:13;102559.13;;;6.86;76.56
73457;BME280;61691;53.072;6.582;2023-04-08T06:28:40;102596.72;;;6.91;76.09
73457;BME280;61691;53.072;6.582;2023-04-08T06:31:07;102588.41;;;6.80;76.53
73457;BME280;61691;53.072;6.582;2023-04-08T06:33:34;102589.53;;;6.74;76.02
73457;BME280;61691;53.072;6.582;2023-04-08T06:36:05;102593.22;;;6.70;76.54
73457;BME280;61691;53.072;6.582;2023-04-08T06:38:33;102577.41;;;6.70;76.57
73457;BME280;61691;53.072;6.582;2023-04-08T06:41:07;102567.06;;;6.66;76.40
73457;BME280;61691;53.072;6.582;2023-04-08T06:43:34;102526.53;;;6.29;76.50
73457;BME280;61691;53.072;6.582;2023-04-08T06:46:03;102594.13;;;6.69;76.43
73457;BME280;61691;53.072;6.582;2023-04-08T06:48:30;102589.19;;;6.61;76.53
73457;BME280;61691;53.072;6.582;2023-04-08T06:50:58;102601.31;;;6.66;76.35
73457;BME280;61691;53.072;6.582;2023-04-08T06:53:26;102588.78;;;6.71;76.99
73457;BME280;61691;53.072;6.582;2023-04-08T06:55:54;102565.81;;;6.74;76.55
73457;BME280;61691;53.072;6.582;2023-04-08T06:58:21;102555.53;;;7.07;77.44
73457;BME280;61691;53.072;6.582;2023-04-08T07:00:48;102580.81;;;7.86;77.85
73457;BME280;61691;53.072;6.582;2023-04-08T07:03:15;102581.94;;;8.68;76.19
73457;BME280;61691;53.072;6.582;2023-04-08T07:05:42;102598.72;;;9.33;75.22
73457;BME280;61691;53.072;6.582;2023-04-08T07:08:09;102578.78;;;9.59;73.88
73457;BME280;61691;53.072;6.582;2023-04-08T07:10:35;102597.16;;;9.62;71.53
73457;BME280;61691;53.072;6.582;2023-04-08T07:13:02;102594.06;;;9.38;70.71
73457;BME280;61691;53.072;6.582;2023-04-08T07:15:29;102605.38;;;9.09;70.27
73457;BME280;61691;53.072;6.582;2023-04-08T07:17:56;102611.94;;;9.02;71.62
73457;BME280;61691;53.072;6.582;2023-04-08T07:20:24;102601.75;;;9.10;70.90
73457;BME280;61691;53.072;6.582;2023-04-08T07:22:51;102603.47;;;9.11;70.78
73457;BME280;61691;53.072;6.582;2023-04-08T07:25:18;102625.84;;;9.05;70.43
73457;BME280;61691;53.072;6.582;2023-04-08T07:27:44;102600.72;;;8.64;69.73
73457;BME280;61691;53.072;6.582;2023-04-08T07:30:11;102635.34;;;8.58;69.38
73457;BME280;61691;53.072;6.582;2023-04-08T07:32:38;102625.19;;;8.33;69.11
73457;BME280;61691;53.072;6.582;2023-04-08T07:35:05;102614.56;;;8.15;70.35
73457;BME280;61691;53.072;6.582;2023-04-08T07:37:32;102611.78;;;8.19;69.87
73457;BME280;61691;53.072;6.582;2023-04-08T07:39:59;102620.31;;;8.24;69.92
73457;BME280;61691;53.072;6.582;2023-04-08T07:42:26;102598.38;;;8.04;69.71
73457;BME280;61691;53.072;6.582;2023-04-08T07:44:53;102615.34;;;8.18;70.50
73457;BME280;61691;53.072;6.582;2023-04-08T07:47:19;102628.09;;;8.27;69.92
73457;BME280;61691;53.072;6.582;2023-04-08T07:49:46;102603.50;;;8.07;69.61
73457;BME280;61691;53.072;6.582;2023-04-08T07:52:13;102597.91;;;7.96;70.04
73457;BME280;61691;53.072;6.582;2023-04-08T07:54:41;102609.97;;;8.02;69.89
73457;BME280;61691;53.072;6.582;2023-04-08T07:57:07;102639.88;;;8.20;70.46
73457;BME280;61691;53.072;6.582;2023-04-08T07:59:34;102622.78;;;8.09;69.98
73457;BME280;61691;53.072;6.582;2023-04-08T08:02:01;102646.97;;;8.19;69.75
73457;BME280;61691;53.072;6.582;2023-04-08T08:04:28;102624.25;;;8.15;70.10
73457;BME280;61691;53.072;6.582;2023-04-08T08:06:55;102627.75;;;8.34;70.04
73457;BME280;61691;53.072;6.582;2023-04-08T08:09:22;102645.06;;;8.57;70.26
73457;BME280;61691;53.072;6.582;2023-04-08T08:11:49;102644.28;;;8.72;69.56
73457;BME280;61691;53.072;6.582;2023-04-08T08:14:15;102632.31;;;8.82;69.68
73457;BME280;61691;53.072;6.582;2023-04-08T08:16:42;102637.06;;;8.93;69.00
73457;BME280;61691;53.072;6.582;2023-04-08T08:19:10;102644.22;;;8.91;68.86
73457;BME280;61691;53.072;6.582;2023-04-08T08:21:37;102665.09;;;9.13;69.01
73457;BME280;61691;53.072;6.582;2023-04-08T08:24:05;102661.72;;;9.59;69.39
73457;BME280;61691;53.072;6.582;2023-04-08T08:26:35;102644.38;;;9.85;67.96
73457;BME280;61691;53.072;6.582;2023-04-08T08:29:05;102669.69;;;10.06;67.68
73457;BME280;61691;53.072;6.582;2023-04-08T08:31:34;102646.44;;;9.96;67.09
73457;BME280;61691;53.072;6.582;2023-04-08T08:34:01;102647.97;;;9.84;66.04
73457;BME280;61691;53.072;6.582;2023-04-08T08:36:28;102630.63;;;9.63;66.11
73457;BME280;61691;53.072;6.582;2023-04-08T08:38:55;102656.84;;;9.67;66.02
73457;BME280;61691;53.072;6.582;2023-04-08T08:41:21;102659.22;;;9.56;65.75
73457;BME280;61691;53.072;6.582;2023-04-08T08:43:48;102656.41;;;9.44;65.60
73457;BME280;61691;53.072;6.582;2023-04-08T08:46:16;102674.00;;;9.45;65.36
73457;BME280;61691;53.072;6.582;2023-04-08T08:48:44;102660.56;;;9.32;66.05
73457;BME280;61691;53.072;6.582;2023-04-08T08:51:12;102637.84;;;9.28;66.05
73457;BME280;61691;53.072;6.582;2023-04-08T08:53:39;102674.66;;;9.48;65.30
73457;BME280;61691;53.072;6.582;2023-04-08T08:56:10;102680.91;;;9.47;65.72
73457;BME280;61691;53.072;6.582;2023-04-08T08:58:44;102664.38;;;9.26;65.60
73457;BME280;61691;53.072;6.582;2023-04-08T09:04:08;102681.41;;;9.38;65.71
73457;BME280;61691;53.072;6.582;2023-04-08T09:06:38;102676.28;;;9.35;65.18
73457;BME280;61691;53.072;6.582;2023-04-08T09:09:05;102621.28;;;8.74;65.61
73457;BME280;61691;53.072;6.582;2023-04-08T09:11:36;102695.53;;;9.21;66.22
73457;BME280;61691;53.072;6.582;2023-04-08T09:14:04;102694.66;;;9.21;65.85
73457;BME280;61691;53.072;6.582;2023-04-08T09:16:32;102649.38;;;8.94;66.14
73457;BME280;61691;53.072;6.582;2023-04-08T09:19:07;102656.44;;;8.93;66.01
73457;BME280;61691;53.072;6.582;2023-04-08T09:21:36;102671.38;;;8.95;66.44
73457;BME280;61691;53.072;6.582;2023-04-08T09:24:03;102650.84;;;8.82;66.18
73457;BME280;61691;53.072;6.582;2023-04-08T09:26:29;102686.22;;;8.97;66.96
73457;BME280;61691;53.072;6.582;2023-04-08T09:29:01;102678.00;;;8.86;67.13
73457;BME280;61691;53.072;6.582;2023-04-08T09:31:40;102689.09;;;8.92;67.42
73457;BME280;61691;53.072;6.582;2023-04-08T09:34:14;102671.13;;;8.82;67.38
73457;BME280;61691;53.072;6.582;2023-04-08T09:36:46;102669.59;;;8.78;67.78
73457;BME280;61691;53.072;6.582;2023-04-08T09:39:14;102685.34;;;8.97;68.06
73457;BME280;61691;53.072;6.582;2023-04-08T09:41:42;102666.56;;;8.85;68.08
73457;BME280;61691;53.072;6.582;2023-04-08T09:44:10;102679.00;;;9.01;68.06
73457;BME280;61691;53.072;6.582;2023-04-08T09:49:37;102698.97;;;9.23;67.97
73457;BME280;61691;53.072;6.582;2023-04-08T09:52:14;102689.22;;;9.24;67.75
73457;BME280;61691;53.072;6.582;2023-04-08T09:54:54;102693.88;;;9.36;67.74
73457;BME280;61691;53.072;6.582;2023-04-08T10:00:15;102706.78;;;9.25;67.60
73457;BME280;61691;53.072;6.582;2023-04-08T10:02:53;102702.28;;;9.27;68.34
73457;BME280;61691;53.072;6.582;2023-04-08T10:05:23;102684.22;;;9.18;67.91
73457;BME280;61691;53.072;6.582;2023-04-08T10:07:51;102691.56;;;9.13;67.91
73457;BME280;61691;53.072;6.582;2023-04-08T10:10:18;102698.56;;;9.14;68.38
73457;BME280;61691;53.072;6.582;2023-04-08T10:12:46;102679.75;;;9.03;68.38
73457;BME280;61691;53.072;6.582;2023-04-08T10:15:28;102704.19;;;9.08;68.23
73457;BME280;61691;53.072;6.582;2023-04-08T10:20:46;102690.97;;;8.90;68.50
73457;BME280;61691;53.072;6.582;2023-04-08T10:23:14;102681.63;;;8.83;68.53
73457;BME280;61691;53.072;6.582;2023-04-08T10:36:11;102689.56;;;8.83;69.72
73457;BME280;61691;53.072;6.582;2023-04-08T10:38:40;102703.66;;;9.01;70.00
73457;BME280;61691;53.072;6.582;2023-04-08T10:41:11;102688.63;;;9.02;69.38
73457;BME280;61691;53.072;6.582;2023-04-08T10:43:47;102701.06;;;9.17;69.75
73457;BME280;61691;53.072;6.582;2023-04-08T10:46:14;102677.56;;;9.11;69.41
73457;BME280;61691;53.072;6.582;2023-04-08T10:48:40;102697.16;;;9.24;69.65
73457;BME280;61691;53.072;6.582;2023-04-08T10:51:07;102682.38;;;9.20;69.52
73457;BME280;61691;53.072;6.582;2023-04-08T10:53:36;102688.56;;;9.36;69.63
73457;BME280;61691;53.072;6.582;2023-04-08T10:56:13;102649.97;;;9.32;69.84
73457;BME280;61691;53.072;6.582;2023-04-08T10:58:54;102666.16;;;9.59;69.64
73457;BME280;61691;53.072;6.582;2023-04-08T11:01:24;102683.16;;;9.70;69.42
73457;BME280;61691;53.072;6.582;2023-04-08T11:03:52;102681.66;;;9.82;69.34
73457;BME280;61691;53.072;6.582;2023-04-08T11:06:19;102666.59;;;9.83;69.34
73457;BME280;61691;53.072;6.582;2023-04-08T11:08:46;102653.94;;;9.88;69.31
73457;BME280;61691;53.072;6.582;2023-04-08T11:11:13;102672.56;;;10.02;69.10
73457;BME280;61691;53.072;6.582;2023-04-08T11:13:42;102655.22;;;9.96;69.10
73457;BME280;61691;53.072;6.582;2023-04-08T11:16:20;102655.75;;;9.87;68.89
73457;BME280;61691;53.072;6.582;2023-04-08T11:18:47;102650.72;;;9.83;68.65
73457;BME280;61691;53.072;6.582;2023-04-08T11:21:15;102679.44;;;9.90;68.83
73457;BME280;61691;53.072;6.582;2023-04-08T11:23:42;102663.03;;;9.84;69.13
73457;BME280;61691;53.072;6.582;2023-04-08T11:26:10;102683.69;;;9.93;69.13
73457;BME280;61691;53.072;6.582;2023-04-08T11:28:37;102656.69;;;9.86;69.13
73457;BME280;61691;53.072;6.582;2023-04-08T11:31:04;102644.72;;;9.79;69.43
73457;BME280;61691;53.072;6.582;2023-04-08T11:33:32;102650.72;;;9.83;69.62
73457;BME280;61691;53.072;6.582;2023-04-08T11:36:00;102666.09;;;9.92;69.38
73457;BME280;61691;53.072;6.582;2023-04-08T11:38:27;102667.47;;;9.99;69.77
73457;BME280;61691;53.072;6.582;2023-04-08T11:40:55;102678.75;;;10.18;69.65
73457;BME280;61691;53.072;6.582;2023-04-08T11:43:24;102677.88;;;10.33;69.38
73457;BME280;61691;53.072;6.582;2023-04-08T11:45:51;102646.78;;;10.21;69.12
73457;BME280;61691;53.072;6.582;2023-04-08T11:48:18;102646.59;;;10.24;69.24
73457;BME280;61691;53.072;6.582;2023-04-08T11:50:45;102650.88;;;10.27;68.80
73457;BME280;61691;53.072;6.582;2023-04-08T11:53:19;102682.66;;;10.42;69.10
73457;BME280;61691;53.072;6.582;2023-04-08T11:55:46;102658.53;;;10.31;69.27
73457;BME280;61691;53.072;6.582;2023-04-08T11:58:14;102675.81;;;10.38;69.22
73457;BME280;61691;53.072;6.582;2023-04-08T12:00:41;102677.34;;;10.42;68.75
73457;BME280;61691;53.072;6.582;2023-04-08T12:03:10;102648.31;;;10.25;68.83
73457;BME280;61691;53.072;6.582;2023-04-08T12:05:38;102664.88;;;10.44;68.89
73457;BME280;61691;53.072;6.582;2023-04-08T12:08:05;102659.38;;;10.47;69.19
73457;BME280;61691;53.072;6.582;2023-04-08T12:10:32;102648.69;;;10.49;68.92
73457;BME280;61691;53.072;6.582;2023-04-08T12:12:59;102687.69;;;10.77;69.09
73457;BME280;61691;53.072;6.582;2023-04-08T12:15:26;102669.88;;;10.79;68.99
73457;BME280;61691;53.072;6.582;2023-04-08T12:17:52;102669.81;;;10.80;68.64
73457;BME280;61691;53.072;6.582;2023-04-08T12:20:19;102633.25;;;10.56;68.07
73457;BME280;61691;53.072;6.582;2023-04-08T12:22:46;102675.94;;;10.67;68.43
73457;BME280;61691;53.072;6.582;2023-04-08T12:25:12;102676.09;;;10.64;68.33
73457;BME280;61691;53.072;6.582;2023-04-08T12:27:39;102660.06;;;10.51;68.97
73457;BME280;61691;53.072;6.582;2023-04-08T12:30:06;102684.41;;;10.58;68.75
73457;BME280;61691;53.072;6.582;2023-04-08T12:32:33;102657.25;;;10.38;69.11
73457;BME280;61691;53.072;6.582;2023-04-08T12:35:00;102684.19;;;10.46;68.91
73457;BME280;61691;53.072;6.582;2023-04-08T12:37:27;102675.22;;;10.33;69.38
73457;BME280;61691;53.072;6.582;2023-04-08T12:39:54;102661.19;;;10.16;69.28
73457;BME280;61691;53.072;6.582;2023-04-08T12:42:20;102692.06;;;10.32;69.48
73457;BME280;61691;53.072;6.582;2023-04-08T12:44:47;102687.97;;;10.27;69.98
73457;BME280;61691;53.072;6.582;2023-04-08T12:47:14;102668.16;;;10.18;69.94
73457;BME280;61691;53.072;6.582;2023-04-08T12:49:41;102683.03;;;10.36;70.18
73457;BME280;61691;53.072;6.582;2023-04-08T12:52:15;102676.09;;;10.34;69.81
73457;BME280;61691;53.072;6.582;2023-04-08T12:54:43;102655.41;;;10.25;69.89
73457;BME280;61691;53.072;6.582;2023-04-08T12:57:10;102665.75;;;10.29;69.75
73457;BME280;61691;53.072;6.582;2023-04-08T12:59:37;102692.69;;;10.37;70.19
73457;BME280;61691;53.072;6.582;2023-04-08T13:02:06;102665.91;;;10.26;70.16
73457;BME280;61691;53.072;6.582;2023-04-08T13:04:33;102668.50;;;10.28;70.24
73457;BME280;61691;53.072;6.582;2023-04-08T13:07:00;102670.09;;;10.30;70.63
73457;BME280;61691;53.072;6.582;2023-04-08T13:09:27;102664.22;;;10.25;70.18
73457;BME280;61691;53.072;6.582;2023-04-08T13:11:55;102669.34;;;10.28;70.18
73457;BME280;61691;53.072;6.582;2023-04-08T13:14:22;102674.44;;;10.31;70.09
73457;BME280;61691;53.072;6.582;2023-04-08T13:16:48;102692.50;;;10.40;70.66
73457;BME280;61691;53.072;6.582;2023-04-08T13:19:15;102681.38;;;10.34;70.30
73457;BME280;61691;53.072;6.582;2023-04-08T13:21:42;102681.03;;;10.40;70.75
73457;BME280;61691;53.072;6.582;2023-04-08T13:24:11;102685.09;;;10.45;70.86
73457;BME280;61691;53.072;6.582;2023-04-08T13:26:39;102676.06;;;10.50;70.95